sensor_id;sensor_type;location;lat;lon;timestamp;temperature;humidity
34776;DHT22;20989;52.566;13.346;2022-08-25T00:00:22;26.70;49.70
34776;DHT22;20989;52.566;13.346;2022-08-25T00:03:22;26.70;49.70
34776;DHT22;20989;52.566;13.346;2022-08-25T00:06:23;26.70;49.70
34776;DHT22;20989;52.566;13.346;2022-08-25T00:09:25;26.70;49.60
34776;DHT22;20989;52.566;13.346;2022-08-25T00:12:26;26.70;49.60
34776;DHT22;20989;52.566;13.346;2022-08-25T00:15:29;26.70;49.70
34776;DHT22;20989;52.566;13.346;2022-08-25T00:18:30;26.70;49.60
34776;DHT22;20989;52.566;13.346;2022-08-25T00:21:31;26.70;49.60
34776;DHT22;20989;52.566;13.346;2022-08-25T00:24:32;26.70;49.60
34776;DHT22;20989;52.566;13.346;2022-08-25T00:27:33;26.70;50.10
34776;DHT22;20989;52.566;13.346;2022-08-25T00:30:33;26.70;49.60
34776;DHT22;20989;52.566;13.346;2022-08-25T00:33:36;26.70;49.70
34776;DHT22;20989;52.566;13.346;2022-08-25T00:36:37;26.70;49.60
34776;DHT22;20989;52.566;13.346;2022-08-25T00:39:38;26.70;49.60
34776;DHT22;20989;52.566;13.346;2022-08-25T00:42:39;26.60;49.60
34776;DHT22;20989;52.566;13.346;2022-08-25T00:45:40;26.70;49.60
34776;DHT22;20989;52.566;13.346;2022-08-25T00:48:43;26.70;49.70
34776;DHT22;20989;52.566;13.346;2022-08-25T00:51:54;26.60;49.60
34776;DHT22;20989;52.566;13.346;2022-08-25T00:54:59;26.60;49.60
34776;DHT22;20989;52.566;13.346;2022-08-25T00:58:07;26.60;49.60
34776;DHT22;20989;52.566;13.346;2022-08-25T01:01:08;26.60;49.50
34776;DHT22;20989;52.566;13.346;2022-08-25T01:04:08;26.60;49.60
34776;DHT22;20989;52.566;13.346;2022-08-25T01:07:10;26.60;49.60
34776;DHT22;20989;52.566;13.346;2022-08-25T01:10:12;26.60;49.60
34776;DHT22;20989;52.566;13.346;2022-08-25T01:13:26;26.60;49.60
34776;DHT22;20989;52.566;13.346;2022-08-25T01:16:28;26.60;49.60
34776;DHT22;20989;52.566;13.346;2022-08-25T01:19:29;26.60;49.50
34776;DHT22;20989;52.566;13.346;2022-08-25T01:22:32;26.60;49.60
34776;DHT22;20989;52.566;13.346;2022-08-25T01:25:44;26.60;49.60
34776;DHT22;20989;52.566;13.346;2022-08-25T01:28:48;26.60;49.60
34776;DHT22;20989;52.566;13.346;2022-08-25T01:32:10;26.60;49.70
34776;DHT22;20989;52.566;13.346;2022-08-25T01:35:12;26.60;49.60
34776;DHT22;20989;52.566;13.346;2022-08-25T01:38:13;26.60;49.60
34776;DHT22;20989;52.566;13.346;2022-08-25T01:41:18;26.60;49.60
34776;DHT22;20989;52.566;13.346;2022-08-25T01:44:20;26.60;49.60
34776;DHT22;20989;52.566;13.346;2022-08-25T01:47:21;26.60;49.60
34776;DHT22;20989;52.566;13.346;2022-08-25T01:50:24;26.60;49.60
34776;DHT22;20989;52.566;13.346;2022-08-25T01:53:29;26.60;49.60
34776;DHT22;20989;52.566;13.346;2022-08-25T01:56:30;26.60;49.60
34776;DHT22;20989;52.566;13.346;2022-08-25T01:59:31;26.60;49.60
34776;DHT22;20989;52.566;13.346;2022-08-25T02:02:31;26.60;49.60
34776;DHT22;20989;52.566;13.346;2022-08-25T02:05:32;26.60;49.60
34776;DHT22;20989;52.566;13.346;2022-08-25T02:08:33;26.60;49.60
34776;DHT22;20989;52.566;13.346;2022-08-25T02:11:36;26.60;49.60
34776;DHT22;20989;52.566;13.346;2022-08-25T02:14:37;26.60;49.60
34776;DHT22;20989;52.566;13.346;2022-08-25T02:17:38;26.60;49.60
34776;DHT22;20989;52.566;13.346;2022-08-25T02:20:38;26.60;49.60
34776;DHT22;20989;52.566;13.346;2022-08-25T02:23:40;26.60;49.60
34776;DHT22;20989;52.566;13.346;2022-08-25T02:26:41;26.60;49.60
34776;DHT22;20989;52.566;13.346;2022-08-25T02:29:42;26.60;49.60
34776;DHT22;20989;52.566;13.346;2022-08-25T02:32:43;26.60;49.60
34776;DHT22;20989;52.566;13.346;2022-08-25T02:35:43;26.60;49.60
34776;DHT22;20989;52.566;13.346;2022-08-25T02:38:44;26.60;49.60
34776;DHT22;20989;52.566;13.346;2022-08-25T02:41:45;26.60;49.60
34776;DHT22;20989;52.566;13.346;2022-08-25T02:44:46;26.60;49.60
34776;DHT22;20989;52.566;13.346;2022-08-25T02:47:47;26.60;49.60
34776;DHT22;20989;52.566;13.346;2022-08-25T02:50:49;26.60;49.50
34776;DHT22;20989;52.566;13.346;2022-08-25T02:53:51;26.60;49.50
34776;DHT22;20989;52.566;13.346;2022-08-25T02:56:52;26.60;49.50
34776;DHT22;20989;52.566;13.346;2022-08-25T02:59:53;26.60;49.50
34776;DHT22;20989;52.566;13.346;2022-08-25T03:02:54;26.60;49.50
34776;DHT22;20989;52.566;13.346;2022-08-25T03:05:54;26.50;49.50
34776;DHT22;20989;52.566;13.346;2022-08-25T03:08:56;26.60;49.50
34776;DHT22;20989;52.566;13.346;2022-08-25T03:11:57;26.60;49.50
34776;DHT22;20989;52.566;13.346;2022-08-25T03:14:58;26.50;49.50
34776;DHT22;20989;52.566;13.346;2022-08-25T03:17:58;26.50;49.50
34776;DHT22;20989;52.566;13.346;2022-08-25T03:21:01;26.50;49.50
34776;DHT22;20989;52.566;13.346;2022-08-25T03:24:03;26.60;49.60
34776;DHT22;20989;52.566;13.346;2022-08-25T03:27:04;26.60;49.60
34776;DHT22;20989;52.566;13.346;2022-08-25T03:30:06;26.50;49.50
34776;DHT22;20989;52.566;13.346;2022-08-25T03:33:07;26.50;49.50
34776;DHT22;20989;52.566;13.346;2022-08-25T03:36:08;26.60;50.10
34776;DHT22;20989;52.566;13.346;2022-08-25T03:39:11;26.50;49.50
34776;DHT22;20989;52.566;13.346;2022-08-25T03:42:12;26.50;49.50
34776;DHT22;20989;52.566;13.346;2022-08-25T03:45:15;26.50;49.50
34776;DHT22;20989;52.566;13.346;2022-08-25T03:48:16;26.50;49.50
34776;DHT22;20989;52.566;13.346;2022-08-25T03:51:26;26.50;49.50
34776;DHT22;20989;52.566;13.346;2022-08-25T03:54:27;26.50;49.50
34776;DHT22;20989;52.566;13.346;2022-08-25T03:57:28;26.50;49.50
34776;DHT22;20989;52.566;13.346;2022-08-25T04:00:28;26.50;49.50
34776;DHT22;20989;52.566;13.346;2022-08-25T04:03:29;26.50;49.80
34776;DHT22;20989;52.566;13.346;2022-08-25T04:06:30;26.50;49.70
34776;DHT22;20989;52.566;13.346;2022-08-25T04:09:31;26.50;49.70
34776;DHT22;20989;52.566;13.346;2022-08-25T04:12:32;26.50;49.60
34776;DHT22;20989;52.566;13.346;2022-08-25T04:15:33;26.50;49.60
34776;DHT22;20989;52.566;13.346;2022-08-25T04:18:34;26.50;49.60
34776;DHT22;20989;52.566;13.346;2022-08-25T04:21:39;26.50;49.60
34776;DHT22;20989;52.566;13.346;2022-08-25T04:24:40;26.50;49.60
34776;DHT22;20989;52.566;13.346;2022-08-25T04:27:41;26.50;50.10
34776;DHT22;20989;52.566;13.346;2022-08-25T04:30:42;26.50;49.60
34776;DHT22;20989;52.566;13.346;2022-08-25T04:33:43;26.50;49.70
34776;DHT22;20989;52.566;13.346;2022-08-25T04:36:43;26.50;49.70
34776;DHT22;20989;52.566;13.346;2022-08-25T04:39:44;26.50;49.70
34776;DHT22;20989;52.566;13.346;2022-08-25T04:42:45;26.50;49.70
34776;DHT22;20989;52.566;13.346;2022-08-25T04:45:46;26.50;49.70
34776;DHT22;20989;52.566;13.346;2022-08-25T04:48:48;26.50;49.70
34776;DHT22;20989;52.566;13.346;2022-08-25T04:51:48;26.50;49.60
34776;DHT22;20989;52.566;13.346;2022-08-25T04:54:49;26.50;49.70
34776;DHT22;20989;52.566;13.346;2022-08-25T04:57:50;26.40;49.70
34776;DHT22;20989;52.566;13.346;2022-08-25T05:00:50;26.50;49.70
34776;DHT22;20989;52.566;13.346;2022-08-25T05:03:58;26.50;49.70
34776;DHT22;20989;52.566;13.346;2022-08-25T05:06:59;26.40;49.70
34776;DHT22;20989;52.566;13.346;2022-08-25T05:10:00;26.50;49.70
34776;DHT22;20989;52.566;13.346;2022-08-25T05:13:00;26.50;49.70
34776;DHT22;20989;52.566;13.346;2022-08-25T05:16:02;26.50;49.70
34776;DHT22;20989;52.566;13.346;2022-08-25T05:19:02;26.50;49.70
34776;DHT22;20989;52.566;13.346;2022-08-25T05:22:04;26.40;49.70
34776;DHT22;20989;52.566;13.346;2022-08-25T05:25:05;26.40;49.70
34776;DHT22;20989;52.566;13.346;2022-08-25T05:28:06;26.40;49.70
34776;DHT22;20989;52.566;13.346;2022-08-25T05:31:09;26.40;49.70
34776;DHT22;20989;52.566;13.346;2022-08-25T05:34:10;26.40;49.70
34776;DHT22;20989;52.566;13.346;2022-08-25T05:37:11;26.40;49.70
34776;DHT22;20989;52.566;13.346;2022-08-25T05:40:12;26.40;49.60
34776;DHT22;20989;52.566;13.346;2022-08-25T05:43:13;26.40;49.60
34776;DHT22;20989;52.566;13.346;2022-08-25T05:46:16;26.40;49.60
34776;DHT22;20989;52.566;13.346;2022-08-25T05:49:17;26.40;49.60
34776;DHT22;20989;52.566;13.346;2022-08-25T05:52:18;26.40;50.20
34776;DHT22;20989;52.566;13.346;2022-08-25T05:55:19;26.40;49.80
34776;DHT22;20989;52.566;13.346;2022-08-25T05:58:21;26.40;49.80
34776;DHT22;20989;52.566;13.346;2022-08-25T06:01:26;26.40;49.70
34776;DHT22;20989;52.566;13.346;2022-08-25T06:04:46;26.40;49.70
34776;DHT22;20989;52.566;13.346;2022-08-25T06:07:48;26.50;49.80
34776;DHT22;20989;52.566;13.346;2022-08-25T06:10:53;26.40;49.70
34776;DHT22;20989;52.566;13.346;2022-08-25T06:13:54;26.40;49.70
34776;DHT22;20989;52.566;13.346;2022-08-25T06:16:54;26.40;49.60
34776;DHT22;20989;52.566;13.346;2022-08-25T06:19:56;26.40;50.00
34776;DHT22;20989;52.566;13.346;2022-08-25T06:22:58;26.40;52.00
34776;DHT22;20989;52.566;13.346;2022-08-25T06:25:58;26.40;53.00
34776;DHT22;20989;52.566;13.346;2022-08-25T06:28:59;26.40;53.40
34776;DHT22;20989;52.566;13.346;2022-08-25T06:31:59;26.50;53.40
34776;DHT22;20989;52.566;13.346;2022-08-25T06:35:04;26.50;54.50
34776;DHT22;20989;52.566;13.346;2022-08-25T06:38:05;26.50;53.50
34776;DHT22;20989;52.566;13.346;2022-08-25T06:41:07;26.50;54.50
34776;DHT22;20989;52.566;13.346;2022-08-25T06:44:10;26.60;55.70
34776;DHT22;20989;52.566;13.346;2022-08-25T06:47:11;26.60;56.60
34776;DHT22;20989;52.566;13.346;2022-08-25T06:50:12;26.60;56.20
34776;DHT22;20989;52.566;13.346;2022-08-25T06:53:12;26.60;55.70
34776;DHT22;20989;52.566;13.346;2022-08-25T06:56:14;26.50;55.60
34776;DHT22;20989;52.566;13.346;2022-08-25T06:59:15;26.50;57.00
34776;DHT22;20989;52.566;13.346;2022-08-25T07:02:16;26.50;55.80
34776;DHT22;20989;52.566;13.346;2022-08-25T07:05:17;26.50;56.50
34776;DHT22;20989;52.566;13.346;2022-08-25T07:08:18;26.40;57.50
34776;DHT22;20989;52.566;13.346;2022-08-25T07:11:19;26.40;57.00
34776;DHT22;20989;52.566;13.346;2022-08-25T07:14:22;26.40;58.50
34776;DHT22;20989;52.566;13.346;2022-08-25T07:17:23;25.90;60.80
34776;DHT22;20989;52.566;13.346;2022-08-25T07:20:24;25.40;62.60
34776;DHT22;20989;52.566;13.346;2022-08-25T07:23:25;25.30;63.30
34776;DHT22;20989;52.566;13.346;2022-08-25T07:26:31;24.80;65.50
34776;DHT22;20989;52.566;13.346;2022-08-25T07:29:34;25.00;66.20
34776;DHT22;20989;52.566;13.346;2022-08-25T07:32:38;25.00;65.80
34776;DHT22;20989;52.566;13.346;2022-08-25T07:35:38;24.70;66.80
34776;DHT22;20989;52.566;13.346;2022-08-25T07:38:39;24.80;67.00
34776;DHT22;20989;52.566;13.346;2022-08-25T07:41:41;25.00;66.10
34776;DHT22;20989;52.566;13.346;2022-08-25T07:44:42;25.30;65.00
34776;DHT22;20989;52.566;13.346;2022-08-25T07:47:42;25.50;63.90
34776;DHT22;20989;52.566;13.346;2022-08-25T07:50:44;25.20;65.20
34776;DHT22;20989;52.566;13.346;2022-08-25T07:53:44;24.70;67.60
34776;DHT22;20989;52.566;13.346;2022-08-25T07:56:45;24.80;67.40
34776;DHT22;20989;52.566;13.346;2022-08-25T07:59:46;24.60;68.20
34776;DHT22;20989;52.566;13.346;2022-08-25T08:02:46;23.90;71.50
34776;DHT22;20989;52.566;13.346;2022-08-25T08:05:47;24.20;70.70
34776;DHT22;20989;52.566;13.346;2022-08-25T08:08:50;24.70;68.10
34776;DHT22;20989;52.566;13.346;2022-08-25T08:11:51;24.60;69.40
34776;DHT22;20989;52.566;13.346;2022-08-25T08:14:52;24.70;68.90
34776;DHT22;20989;52.566;13.346;2022-08-25T08:17:53;24.70;69.50
34776;DHT22;20989;52.566;13.346;2022-08-25T08:20:54;24.00;72.10
34776;DHT22;20989;52.566;13.346;2022-08-25T08:23:55;24.60;69.40
34776;DHT22;20989;52.566;13.346;2022-08-25T08:26:56;25.00;67.80
34776;DHT22;20989;52.566;13.346;2022-08-25T08:29:57;25.10;67.60
34776;DHT22;20989;52.566;13.346;2022-08-25T08:32:58;24.50;69.90
34776;DHT22;20989;52.566;13.346;2022-08-25T08:35:59;24.70;68.80
34776;DHT22;20989;52.566;13.346;2022-08-25T08:39:00;24.50;70.10
34776;DHT22;20989;52.566;13.346;2022-08-25T08:42:16;24.90;69.00
34776;DHT22;20989;52.566;13.346;2022-08-25T08:45:29;24.30;71.90
34776;DHT22;20989;52.566;13.346;2022-08-25T08:48:59;24.10;73.00
34776;DHT22;20989;52.566;13.346;2022-08-25T08:52:02;24.40;71.20
34776;DHT22;20989;52.566;13.346;2022-08-25T08:55:08;24.40;71.50
34776;DHT22;20989;52.566;13.346;2022-08-25T08:58:40;24.50;71.20
34776;DHT22;20989;52.566;13.346;2022-08-25T09:01:51;24.30;72.30
34776;DHT22;20989;52.566;13.346;2022-08-25T09:05:01;24.60;70.90
34776;DHT22;20989;52.566;13.346;2022-08-25T09:08:06;24.40;71.70
34776;DHT22;20989;52.566;13.346;2022-08-25T09:20:53;24.40;72.10
34776;DHT22;20989;52.566;13.346;2022-08-25T09:33:53;24.20;73.40
34776;DHT22;20989;52.566;13.346;2022-08-25T09:36:55;24.40;72.80
34776;DHT22;20989;52.566;13.346;2022-08-25T09:39:56;24.90;71.20
34776;DHT22;20989;52.566;13.346;2022-08-25T09:42:58;25.20;70.60
34776;DHT22;20989;52.566;13.346;2022-08-25T09:46:28;25.30;70.50
34776;DHT22;20989;52.566;13.346;2022-08-25T09:49:41;25.30;70.10
34776;DHT22;20989;52.566;13.346;2022-08-25T09:52:42;25.20;71.40
34776;DHT22;20989;52.566;13.346;2022-08-25T09:55:45;25.40;70.60
34776;DHT22;20989;52.566;13.346;2022-08-25T09:58:47;25.60;68.70
34776;DHT22;20989;52.566;13.346;2022-08-25T10:01:52;25.70;69.40
34776;DHT22;20989;52.566;13.346;2022-08-25T10:04:54;25.30;70.30
34776;DHT22;20989;52.566;13.346;2022-08-25T10:07:58;25.50;69.80
34776;DHT22;20989;52.566;13.346;2022-08-25T10:11:01;25.50;69.50
34776;DHT22;20989;52.566;13.346;2022-08-25T10:14:17;25.20;69.90
34776;DHT22;20989;52.566;13.346;2022-08-25T10:17:27;25.40;70.30
34776;DHT22;20989;52.566;13.346;2022-08-25T10:20:28;25.50;68.80
34776;DHT22;20989;52.566;13.346;2022-08-25T10:23:29;25.70;68.50
34776;DHT22;20989;52.566;13.346;2022-08-25T10:34:00;25.70;68.20
34776;DHT22;20989;52.566;13.346;2022-08-25T10:40:47;25.80;68.20
34776;DHT22;20989;52.566;13.346;2022-08-25T10:48:01;25.50;67.70
34776;DHT22;20989;52.566;13.346;2022-08-25T10:52:28;25.30;68.20
34776;DHT22;20989;52.566;13.346;2022-08-25T11:05:46;25.80;67.20
34776;DHT22;20989;52.566;13.346;2022-08-25T11:08:59;26.00;66.00
34776;DHT22;20989;52.566;13.346;2022-08-25T11:12:10;26.10;65.40
34776;DHT22;20989;52.566;13.346;2022-08-25T11:15:16;26.20;65.10
34776;DHT22;20989;52.566;13.346;2022-08-25T11:18:20;26.30;64.90
34776;DHT22;20989;52.566;13.346;2022-08-25T11:21:39;26.40;65.10
34776;DHT22;20989;52.566;13.346;2022-08-25T11:28:13;26.50;64.60
34776;DHT22;20989;52.566;13.346;2022-08-25T11:31:16;26.50;64.60
34776;DHT22;20989;52.566;13.346;2022-08-25T11:34:20;26.60;64.60
34776;DHT22;20989;52.566;13.346;2022-08-25T11:37:25;26.50;64.00
34776;DHT22;20989;52.566;13.346;2022-08-25T11:40:33;26.60;64.00
34776;DHT22;20989;52.566;13.346;2022-08-25T11:53:40;26.70;63.40
34776;DHT22;20989;52.566;13.346;2022-08-25T11:56:54;26.80;63.00
34776;DHT22;20989;52.566;13.346;2022-08-25T12:06:32;26.80;62.80
34776;DHT22;20989;52.566;13.346;2022-08-25T12:15:58;26.90;62.50
34776;DHT22;20989;52.566;13.346;2022-08-25T12:25:38;27.00;62.00
34776;DHT22;20989;52.566;13.346;2022-08-25T12:39:29;27.00;61.70
34776;DHT22;20989;52.566;13.346;2022-08-25T12:42:36;27.00;61.70
34776;DHT22;20989;52.566;13.346;2022-08-25T12:45:41;27.00;61.50
34776;DHT22;20989;52.566;13.346;2022-08-25T12:52:01;27.00;61.90
34776;DHT22;20989;52.566;13.346;2022-08-25T12:55:05;27.00;61.70
34776;DHT22;20989;52.566;13.346;2022-08-25T12:58:11;27.10;61.20
34776;DHT22;20989;52.566;13.346;2022-08-25T13:01:24;27.10;61.30
34776;DHT22;20989;52.566;13.346;2022-08-25T13:11:30;27.10;60.90
34776;DHT22;20989;52.566;13.346;2022-08-25T13:14:38;27.10;60.80
34776;DHT22;20989;52.566;13.346;2022-08-25T13:17:40;27.10;60.70
34776;DHT22;20989;52.566;13.346;2022-08-25T13:20:40;27.10;61.00
34776;DHT22;20989;52.566;13.346;2022-08-25T13:23:49;27.10;60.50
34776;DHT22;20989;52.566;13.346;2022-08-25T13:27:05;27.10;60.50
34776;DHT22;20989;52.566;13.346;2022-08-25T13:30:06;27.20;60.50
34776;DHT22;20989;52.566;13.346;2022-08-25T13:33:21;27.20;60.30
34776;DHT22;20989;52.566;13.346;2022-08-25T13:36:27;27.20;60.40
34776;DHT22;20989;52.566;13.346;2022-08-25T13:39:46;27.30;60.20
34776;DHT22;20989;52.566;13.346;2022-08-25T13:42:49;27.30;60.40
34776;DHT22;20989;52.566;13.346;2022-08-25T13:45:50;27.30;60.20
34776;DHT22;20989;52.566;13.346;2022-08-25T13:49:02;27.30;60.00
34776;DHT22;20989;52.566;13.346;2022-08-25T13:52:04;27.30;60.00
34776;DHT22;20989;52.566;13.346;2022-08-25T13:55:06;27.40;60.20
34776;DHT22;20989;52.566;13.346;2022-08-25T13:58:14;27.30;60.00
34776;DHT22;20989;52.566;13.346;2022-08-25T14:01:22;27.40;60.00
34776;DHT22;20989;52.566;13.346;2022-08-25T14:04:43;27.40;60.20
34776;DHT22;20989;52.566;13.346;2022-08-25T14:07:55;27.40;60.60
34776;DHT22;20989;52.566;13.346;2022-08-25T14:11:14;27.30;60.50
34776;DHT22;20989;52.566;13.346;2022-08-25T14:17:22;27.40;60.50
34776;DHT22;20989;52.566;13.346;2022-08-25T14:20:25;27.30;60.50
34776;DHT22;20989;52.566;13.346;2022-08-25T14:23:29;27.40;60.00
34776;DHT22;20989;52.566;13.346;2022-08-25T14:26:30;27.40;60.60
34776;DHT22;20989;52.566;13.346;2022-08-25T14:29:31;27.40;60.00
34776;DHT22;20989;52.566;13.346;2022-08-25T14:32:31;27.40;59.90
34776;DHT22;20989;52.566;13.346;2022-08-25T14:35:32;27.40;60.80
34776;DHT22;20989;52.566;13.346;2022-08-25T14:38:34;27.50;59.70
34776;DHT22;20989;52.566;13.346;2022-08-25T14:41:37;27.40;59.80
34776;DHT22;20989;52.566;13.346;2022-08-25T14:44:38;27.40;59.40
34776;DHT22;20989;52.566;13.346;2022-08-25T14:47:39;27.30;59.60
34776;DHT22;20989;52.566;13.346;2022-08-25T14:50:39;27.40;59.40
34776;DHT22;20989;52.566;13.346;2022-08-25T14:53:42;27.40;59.40
34776;DHT22;20989;52.566;13.346;2022-08-25T14:56:44;27.50;59.20
34776;DHT22;20989;52.566;13.346;2022-08-25T14:59:46;27.30;59.60
34776;DHT22;20989;52.566;13.346;2022-08-25T15:02:48;27.20;59.90
34776;DHT22;20989;52.566;13.346;2022-08-25T15:05:49;27.40;59.70
34776;DHT22;20989;52.566;13.346;2022-08-25T15:08:50;27.40;59.90
34776;DHT22;20989;52.566;13.346;2022-08-25T15:12:10;27.50;59.90
34776;DHT22;20989;52.566;13.346;2022-08-25T15:15:11;27.50;59.20
34776;DHT22;20989;52.566;13.346;2022-08-25T15:18:12;27.60;59.20
34776;DHT22;20989;52.566;13.346;2022-08-25T15:21:13;27.50;58.60
34776;DHT22;20989;52.566;13.346;2022-08-25T15:24:14;27.60;58.50
34776;DHT22;20989;52.566;13.346;2022-08-25T15:27:18;27.50;58.60
34776;DHT22;20989;52.566;13.346;2022-08-25T15:30:20;27.20;58.60
34776;DHT22;20989;52.566;13.346;2022-08-25T15:33:21;27.30;58.80
34776;DHT22;20989;52.566;13.346;2022-08-25T15:36:23;27.40;59.70
34776;DHT22;20989;52.566;13.346;2022-08-25T15:39:25;27.40;58.80
34776;DHT22;20989;52.566;13.346;2022-08-25T15:42:26;27.50;58.90
34776;DHT22;20989;52.566;13.346;2022-08-25T15:45:27;27.50;58.50
34776;DHT22;20989;52.566;13.346;2022-08-25T15:48:27;27.40;58.20
34776;DHT22;20989;52.566;13.346;2022-08-25T15:51:28;27.40;58.50
34776;DHT22;20989;52.566;13.346;2022-08-25T15:54:30;27.50;58.20
34776;DHT22;20989;52.566;13.346;2022-08-25T15:57:31;27.50;58.40
34776;DHT22;20989;52.566;13.346;2022-08-25T16:00:32;27.40;58.50
34776;DHT22;20989;52.566;13.346;2022-08-25T16:03:33;27.40;58.70
34776;DHT22;20989;52.566;13.346;2022-08-25T16:06:33;27.40;59.30
34776;DHT22;20989;52.566;13.346;2022-08-25T16:09:34;27.50;59.30
34776;DHT22;20989;52.566;13.346;2022-08-25T16:12:35;27.50;58.10
34776;DHT22;20989;52.566;13.346;2022-08-25T16:15:37;27.50;58.90
34776;DHT22;20989;52.566;13.346;2022-08-25T16:18:38;27.60;58.00
34776;DHT22;20989;52.566;13.346;2022-08-25T16:21:38;27.60;58.10
34776;DHT22;20989;52.566;13.346;2022-08-25T16:24:42;27.60;58.00
34776;DHT22;20989;52.566;13.346;2022-08-25T16:27:46;27.40;58.20
34776;DHT22;20989;52.566;13.346;2022-08-25T16:30:48;27.50;58.80
34776;DHT22;20989;52.566;13.346;2022-08-25T16:33:50;27.50;58.30
34776;DHT22;20989;52.566;13.346;2022-08-25T16:36:51;27.40;58.20
34776;DHT22;20989;52.566;13.346;2022-08-25T16:39:54;27.30;58.70
34776;DHT22;20989;52.566;13.346;2022-08-25T16:42:55;27.30;58.60
34776;DHT22;20989;52.566;13.346;2022-08-25T16:46:00;27.40;58.30
34776;DHT22;20989;52.566;13.346;2022-08-25T16:49:05;27.50;58.20
34776;DHT22;20989;52.566;13.346;2022-08-25T16:52:06;27.50;58.00
34776;DHT22;20989;52.566;13.346;2022-08-25T16:55:27;27.60;57.90
34776;DHT22;20989;52.566;13.346;2022-08-25T16:58:28;27.60;57.70
34776;DHT22;20989;52.566;13.346;2022-08-25T17:01:30;27.70;57.70
34776;DHT22;20989;52.566;13.346;2022-08-25T17:04:33;27.50;58.10
34776;DHT22;20989;52.566;13.346;2022-08-25T17:07:33;27.50;58.10
34776;DHT22;20989;52.566;13.346;2022-08-25T17:10:40;27.40;58.80
34776;DHT22;20989;52.566;13.346;2022-08-25T17:13:43;27.30;58.70
34776;DHT22;20989;52.566;13.346;2022-08-25T17:16:45;27.20;59.50
34776;DHT22;20989;52.566;13.346;2022-08-25T17:19:46;27.40;58.90
34776;DHT22;20989;52.566;13.346;2022-08-25T17:22:47;27.40;58.90
34776;DHT22;20989;52.566;13.346;2022-08-25T17:25:48;27.40;59.00
34776;DHT22;20989;52.566;13.346;2022-08-25T17:28:49;27.50;59.00
34776;DHT22;20989;52.566;13.346;2022-08-25T17:31:50;27.50;59.30
34776;DHT22;20989;52.566;13.346;2022-08-25T17:34:50;27.40;59.40
34776;DHT22;20989;52.566;13.346;2022-08-25T17:37:51;27.30;59.40
34776;DHT22;20989;52.566;13.346;2022-08-25T17:40:53;27.30;59.50
34776;DHT22;20989;52.566;13.346;2022-08-25T17:43:54;27.30;59.50
34776;DHT22;20989;52.566;13.346;2022-08-25T17:46:54;27.20;59.50
34776;DHT22;20989;52.566;13.346;2022-08-25T17:49:55;27.30;59.30
34776;DHT22;20989;52.566;13.346;2022-08-25T17:52:56;27.30;59.60
34776;DHT22;20989;52.566;13.346;2022-08-25T17:56:06;27.30;59.40
34776;DHT22;20989;52.566;13.346;2022-08-25T17:59:08;27.30;59.80
34776;DHT22;20989;52.566;13.346;2022-08-25T18:02:09;27.30;59.90
34776;DHT22;20989;52.566;13.346;2022-08-25T18:05:10;27.30;59.90
34776;DHT22;20989;52.566;13.346;2022-08-25T18:08:12;27.20;59.60
34776;DHT22;20989;52.566;13.346;2022-08-25T18:11:15;27.30;59.70
34776;DHT22;20989;52.566;13.346;2022-08-25T18:14:16;27.40;59.80
34776;DHT22;20989;52.566;13.346;2022-08-25T18:17:17;27.50;59.50
34776;DHT22;20989;52.566;13.346;2022-08-25T18:20:18;27.50;59.20
34776;DHT22;20989;52.566;13.346;2022-08-25T18:23:19;27.50;59.10
34776;DHT22;20989;52.566;13.346;2022-08-25T18:26:20;27.50;58.90
34776;DHT22;20989;52.566;13.346;2022-08-25T18:29:20;27.50;59.00
34776;DHT22;20989;52.566;13.346;2022-08-25T18:32:21;27.50;58.90
34776;DHT22;20989;52.566;13.346;2022-08-25T18:35:22;27.40;58.80
34776;DHT22;20989;52.566;13.346;2022-08-25T18:38:22;27.40;58.80
34776;DHT22;20989;52.566;13.346;2022-08-25T18:41:42;27.50;58.90
34776;DHT22;20989;52.566;13.346;2022-08-25T18:44:43;27.40;58.80
34776;DHT22;20989;52.566;13.346;2022-08-25T18:47:43;27.40;58.80
34776;DHT22;20989;52.566;13.346;2022-08-25T18:50:45;27.40;58.70
34776;DHT22;20989;52.566;13.346;2022-08-25T18:53:46;27.30;58.70
34776;DHT22;20989;52.566;13.346;2022-08-25T18:56:46;27.30;58.70
34776;DHT22;20989;52.566;13.346;2022-08-25T18:59:47;27.30;58.60
34776;DHT22;20989;52.566;13.346;2022-08-25T19:02:50;27.40;58.70
34776;DHT22;20989;52.566;13.346;2022-08-25T19:05:51;27.30;58.60
34776;DHT22;20989;52.566;13.346;2022-08-25T19:08:54;27.30;58.50
34776;DHT22;20989;52.566;13.346;2022-08-25T19:11:55;27.30;58.50
34776;DHT22;20989;52.566;13.346;2022-08-25T19:14:56;27.30;58.50
34776;DHT22;20989;52.566;13.346;2022-08-25T19:17:57;27.30;58.50
34776;DHT22;20989;52.566;13.346;2022-08-25T19:20:58;27.30;58.50
34776;DHT22;20989;52.566;13.346;2022-08-25T19:23:58;27.20;58.40
34776;DHT22;20989;52.566;13.346;2022-08-25T19:26:59;27.30;58.50
34776;DHT22;20989;52.566;13.346;2022-08-25T19:30:04;27.30;58.40
34776;DHT22;20989;52.566;13.346;2022-08-25T19:33:06;27.30;58.40
34776;DHT22;20989;52.566;13.346;2022-08-25T19:36:07;27.20;58.40
34776;DHT22;20989;52.566;13.346;2022-08-25T19:39:10;27.30;58.40
34776;DHT22;20989;52.566;13.346;2022-08-25T19:42:11;27.30;58.40
34776;DHT22;20989;52.566;13.346;2022-08-25T19:45:12;27.30;58.40
34776;DHT22;20989;52.566;13.346;2022-08-25T19:48:13;27.20;58.30
34776;DHT22;20989;52.566;13.346;2022-08-25T19:51:14;27.30;58.30
34776;DHT22;20989;52.566;13.346;2022-08-25T19:54:18;27.20;58.30
34776;DHT22;20989;52.566;13.346;2022-08-25T19:57:20;27.20;58.30
34776;DHT22;20989;52.566;13.346;2022-08-25T20:00:24;27.20;58.20
34776;DHT22;20989;52.566;13.346;2022-08-25T20:03:25;27.20;58.20
34776;DHT22;20989;52.566;13.346;2022-08-25T20:06:25;27.20;58.20
34776;DHT22;20989;52.566;13.346;2022-08-25T20:09:26;27.20;58.20
34776;DHT22;20989;52.566;13.346;2022-08-25T20:12:27;27.20;58.10
34776;DHT22;20989;52.566;13.346;2022-08-25T20:15:28;27.20;58.10
34776;DHT22;20989;52.566;13.346;2022-08-25T20:18:31;27.20;58.10
34776;DHT22;20989;52.566;13.346;2022-08-25T20:21:32;27.20;58.10
34776;DHT22;20989;52.566;13.346;2022-08-25T20:24:34;27.20;58.10
34776;DHT22;20989;52.566;13.346;2022-08-25T20:27:53;27.20;58.10
34776;DHT22;20989;52.566;13.346;2022-08-25T20:30:54;27.20;58.00
34776;DHT22;20989;52.566;13.346;2022-08-25T20:33:55;27.10;58.00
34776;DHT22;20989;52.566;13.346;2022-08-25T20:36:56;27.10;58.00
34776;DHT22;20989;52.566;13.346;2022-08-25T20:39:56;27.10;58.00